Time;durP1;ratioP1;P1;durP2;ratioP2;P2;SDS_P1;SDS_P2;PMS_P1;PMS_P2;Temp;Humidity;BMP_temperature;BMP_pressure;BME280_temperature;BME280_humidity;BME280_pressure;Samples;Min_cycle;Max_cycle;Signal;HPM_P1;HPM_P2
2024/03/10 00:01:24;;;;;;;17.90;15.18;;;;;;;;;;5156487;27;20026;-64
2024/03/10 00:03:50;;;;;;;19.92;16.15;;;;;;;;;;5142891;27;20019;-64
2024/03/10 00:09:20;;;;;;;21.48;18.17;;;;;;;;;;5150463;27;20088;-64
2024/03/10 00:11:46;;;;;;;20.88;17.55;;;;;;;;;;5155954;27;20034;-64
2024/03/10 00:14:12;;;;;;;20.67;17.73;;;;;;;;;;5155914;27;20103;-65
2024/03/10 00:16:38;;;;;;;20.42;17.65;;;;;;;;;;5156115;27;20456;-68
2024/03/10 00:19:04;;;;;;;21.10;17.67;;;;;;;;;;5152087;27;20031;-64
2024/03/10 00:21:30;;;;;;;21.00;16.20;;;;;;;;;;5149799;27;20027;-66
2024/03/10 00:23:56;;;;;;;19.40;17.33;;;;;;;;;;5146326;27;20055;-66
2024/03/10 00:26:22;;;;;;;26.77;18.70;;;;;;;;;;5153529;27;20500;-66
2024/03/10 00:28:50;;;;;;;18.55;16.15;;;;;;;;;;5153169;27;20026;-66
2024/03/10 00:31:16;;;;;;;18.92;16.83;;;;;;;;;;5150042;27;20030;-66
2024/03/10 00:33:44;;;;;;;18.95;16.02;;;;;;;;;;5136684;27;20030;-66
2024/03/10 00:36:13;;;;;;;18.40;15.73;;;;;;;;;;5156019;27;20460;-66
2024/03/10 00:38:39;;;;;;;18.17;16.08;;;;;;;;;;5134034;27;20395;-68
2024/03/10 00:41:05;;;;;;;17.25;15.30;;;;;;;;;;5149639;27;20605;-67
2024/03/10 00:43:33;;;;;;;19.60;16.08;;;;;;;;;;5134466;27;20105;-67
2024/03/10 00:46:00;;;;;;;18.75;16.08;;;;;;;;;;5135040;27;20035;-66
2024/03/10 00:48:26;;;;;;;15.55;13.88;;;;;;;;;;5134889;27;20034;-66
2024/03/10 00:50:52;;;;;;;16.65;14.65;;;;;;;;;;5151165;27;20521;-67
2024/03/10 00:53:18;;;;;;;15.75;14.00;;;;;;;;;;5145507;27;20022;-67
2024/03/10 00:55:44;;;;;;;17.27;14.90;;;;;;;;;;5155068;27;20027;-67
2024/03/10 00:58:10;;;;;;;16.08;14.40;;;;;;;;;;5153263;27;20055;-67
2024/03/10 01:00:37;;;;;;;15.18;13.38;;;;;;;;;;5152556;27;20022;-67
2024/03/10 01:03:06;;;;;;;15.52;13.98;;;;;;;;;;5155009;27;20027;-67
2024/03/10 01:05:32;;;;;;;15.93;14.23;;;;;;;;;;5154965;27;20026;-67
2024/03/10 01:08:00;;;;;;;14.75;13.18;;;;;;;;;;5153556;27;20479;-67
2024/03/10 01:10:26;;;;;;;14.70;13.13;;;;;;;;;;5150259;27;20026;-67
2024/03/10 01:12:56;;;;;;;15.02;13.38;;;;;;;;;;5155005;27;20030;-67
2024/03/10 01:15:22;;;;;;;15.27;13.27;;;;;;;;;;5147939;27;20110;-67
2024/03/10 01:17:48;;;;;;;14.60;13.10;;;;;;;;;;5150136;27;20065;-67
2024/03/10 01:20:15;;;;;;;15.18;13.38;;;;;;;;;;5148584;27;20098;-66
2024/03/10 01:22:42;;;;;;;14.40;12.98;;;;;;;;;;5154934;27;20417;-67
2024/03/10 01:25:08;;;;;;;15.13;13.40;;;;;;;;;;5154151;27;20023;-67
2024/03/10 01:27:35;;;;;;;15.93;14.32;;;;;;;;;;5155079;27;20038;-67
2024/03/10 01:30:02;;;;;;;13.63;12.32;;;;;;;;;;5152688;27;20101;-67
2024/03/10 01:32:56;;;;;;;13.52;12.18;;;;;;;;;;5154414;27;20023;-67
2024/03/10 01:35:22;;;;;;;14.05;12.65;;;;;;;;;;5151235;27;20514;-67
2024/03/10 01:37:48;;;;;;;14.32;12.80;;;;;;;;;;5154648;27;20361;-67
2024/03/10 01:40:13;;;;;;;14.68;13.15;;;;;;;;;;5135120;27;20037;-67
2024/03/10 01:42:52;;;;;;;14.50;12.93;;;;;;;;;;5144222;27;20041;-67
2024/03/10 01:45:18;;;;;;;14.35;12.98;;;;;;;;;;5150795;27;20114;-65
2024/03/10 01:47:47;;;;;;;14.43;12.13;;;;;;;;;;5154314;27;20019;-65
2024/03/10 01:50:13;;;;;;;14.52;13.02;;;;;;;;;;5153094;27;20047;-65
2024/03/10 01:52:41;;;;;;;13.85;12.50;;;;;;;;;;5147171;27;20431;-65
2024/03/10 01:55:07;;;;;;;14.20;12.80;;;;;;;;;;5152438;27;20075;-65
2024/03/10 01:57:33;;;;;;;14.40;12.82;;;;;;;;;;5153981;27;20022;-65
2024/03/10 02:00:02;;;;;;;15.52;13.80;;;;;;;;;;5153161;27;20106;-65
2024/03/10 02:02:28;;;;;;;14.00;12.55;;;;;;;;;;5149388;27;20385;-65
2024/03/10 02:07:57;;;;;;;16.17;14.45;;;;;;;;;;5152241;27;20053;-65
2024/03/10 02:10:23;;;;;;;16.45;14.75;;;;;;;;;;5153954;27;20026;-65
2024/03/10 02:12:49;;;;;;;17.05;15.15;;;;;;;;;;5153770;27;20379;-64
2024/03/10 02:15:21;;;;;;;16.85;14.73;;;;;;;;;;5149012;27;20472;-64
2024/03/10 02:17:48;;;;;;;17.05;15.25;;;;;;;;;;5134880;27;20033;-64
2024/03/10 02:20:19;;;;;;;17.50;15.70;;;;;;;;;;5134518;27;20383;-64
2024/03/10 02:22:46;;;;;;;16.92;15.23;;;;;;;;;;5152385;27;20050;-65
2024/03/10 02:25:13;;;;;;;17.25;15.45;;;;;;;;;;5150597;27;20026;-65
2024/03/10 02:27:42;;;;;;;18.27;15.05;;;;;;;;;;5147689;27;20074;-64
2024/03/10 02:30:29;;;;;;;19.20;17.15;;;;;;;;;;5145855;27;20015;-64
2024/03/10 02:47:25;;;;;;;17.73;15.93;;;;;;;;;;5141597;27;20407;-64
2024/03/10 02:49:44;;;;;;;18.55;15.07;;;;;;;;;;5148618;27;20043;-64
2024/03/10 02:52:12;;;;;;;17.48;14.88;;;;;;;;;;5151252;27;20043;-65
2024/03/10 02:54:39;;;;;;;17.65;15.43;;;;;;;;;;5153238;27;20019;-64
2024/03/10 02:57:06;;;;;;;18.25;15.90;;;;;;;;;;5128114;27;20019;-64
2024/03/10 02:59:32;;;;;;;15.80;14.20;;;;;;;;;;5151360;27;20054;-64
2024/03/10 03:01:58;;;;;;;16.40;13.82;;;;;;;;;;5153699;27;20072;-64
2024/03/10 03:04:28;;;;;;;15.88;13.95;;;;;;;;;;5153363;27;20031;-64
2024/03/10 03:06:54;;;;;;;16.63;14.18;;;;;;;;;;5153336;27;20031;-64
2024/03/10 03:09:23;;;;;;;19.75;15.88;;;;;;;;;;5138485;27;20058;-64
2024/03/10 03:11:49;;;;;;;16.40;14.65;;;;;;;;;;5155450;27;20031;-65
2024/03/10 03:14:15;;;;;;;20.02;15.02;;;;;;;;;;5157081;27;20437;-64
2024/03/10 03:16:42;;;;;;;14.88;13.27;;;;;;;;;;5157516;27;20029;-64
2024/03/10 03:19:13;;;;;;;16.65;13.77;;;;;;;;;;5156378;27;20015;-64
2024/03/10 03:21:39;;;;;;;16.20;13.50;;;;;;;;;;5157495;27;20371;-64
2024/03/10 03:24:08;;;;;;;15.65;13.73;;;;;;;;;;5157273;27;20023;-64
2024/03/10 03:26:38;;;;;;;17.25;14.30;;;;;;;;;;5147798;27;20030;-64
2024/03/10 03:29:05;;;;;;;16.80;13.23;;;;;;;;;;5142379;27;20024;-64
2024/03/10 03:31:32;;;;;;;17.55;15.52;;;;;;;;;;5155276;27;20106;-64
2024/03/10 03:33:58;;;;;;;17.58;14.88;;;;;;;;;;5157436;27;20097;-64
2024/03/10 03:36:24;;;;;;;17.70;14.25;;;;;;;;;;5150107;27;20432;-64
2024/03/10 03:38:50;;;;;;;17.70;14.20;;;;;;;;;;5156435;27;20022;-64
2024/03/10 03:41:16;;;;;;;18.27;15.10;;;;;;;;;;5138222;27;20047;-64
2024/03/10 03:43:45;;;;;;;18.88;15.85;;;;;;;;;;5156986;27;20153;-65
2024/03/10 03:46:11;;;;;;;20.63;15.85;;;;;;;;;;5137583;27;20077;-65
2024/03/10 03:48:37;;;;;;;22.48;17.13;;;;;;;;;;5146516;27;20033;-65
2024/03/10 03:51:05;;;;;;;26.58;16.95;;;;;;;;;;5147442;27;20563;-65
2024/03/10 03:53:31;;;;;;;18.33;15.18;;;;;;;;;;5154467;27;20015;-65
2024/03/10 03:55:57;;;;;;;22.08;16.25;;;;;;;;;;5145010;27;20069;-65
2024/03/10 03:58:23;;;;;;;18.88;15.70;;;;;;;;;;5152388;27;20050;-65
2024/03/10 04:00:49;;;;;;;25.75;19.15;;;;;;;;;;5156488;27;20356;-66
2024/03/10 04:03:15;;;;;;;23.23;17.08;;;;;;;;;;5143534;27;20024;-65
2024/03/10 04:05:41;;;;;;;21.88;15.50;;;;;;;;;;5138711;27;20041;-65
2024/03/10 04:08:07;;;;;;;22.17;16.27;;;;;;;;;;5147881;27;20023;-65
2024/03/10 04:10:36;;;;;;;20.15;16.27;;;;;;;;;;5137507;27;20333;-65
2024/03/10 04:13:08;;;;;;;21.92;16.55;;;;;;;;;;5156037;27;20022;-65
2024/03/10 04:15:35;;;;;;;21.95;16.92;;;;;;;;;;5155892;27;20023;-65
2024/03/10 04:18:04;;;;;;;20.08;16.30;;;;;;;;;;5155027;27;20407;-65
2024/03/10 04:20:31;;;;;;;21.33;16.67;;;;;;;;;;5156097;27;20365;-65
2024/03/10 04:22:57;;;;;;;28.02;18.92;;;;;;;;;;5148130;27;20027;-66
2024/03/10 04:25:23;;;;;;;20.33;16.95;;;;;;;;;;5151049;27;20030;-65
2024/03/10 04:27:49;;;;;;;22.90;18.05;;;;;;;;;;5125599;27;20026;-65
2024/03/10 04:30:16;;;;;;;25.67;18.23;;;;;;;;;;5137586;27;20026;-65
2024/03/10 04:32:42;;;;;;;20.85;16.05;;;;;;;;;;5155672;27;20022;-65
2024/03/10 04:35:11;;;;;;;21.77;17.10;;;;;;;;;;5149811;27;20031;-66
2024/03/10 04:37:37;;;;;;;20.35;15.93;;;;;;;;;;5142579;27;20035;-66
2024/03/10 04:40:06;;;;;;;22.58;16.02;;;;;;;;;;5155757;27;20067;-65
2024/03/10 04:42:32;;;;;;;24.45;17.23;;;;;;;;;;5155615;27;20063;-65
2024/03/10 04:44:59;;;;;;;22.63;16.48;;;;;;;;;;5148105;27;20030;-66
2024/03/10 04:47:25;;;;;;;26.85;19.35;;;;;;;;;;5142904;27;20031;-66
2024/03/10 04:49:52;;;;;;;20.15;15.50;;;;;;;;;;5153277;27;20122;-66
2024/03/10 04:58:26;;;;;;;20.58;14.85;;;;;;;;;;5154163;27;20037;-67
2024/03/10 05:00:52;;;;;;;20.75;15.65;;;;;;;;;;5148416;27;20031;-67
2024/03/10 05:03:20;;;;;;;19.52;14.85;;;;;;;;;;5134768;27;20027;-67
2024/03/10 05:05:49;;;;;;;16.90;12.55;;;;;;;;;;5147803;27;20026;-67
2024/03/10 05:08:15;;;;;;;19.02;13.73;;;;;;;;;;5155036;27;20031;-67
2024/03/10 05:10:42;;;;;;;20.08;13.95;;;;;;;;;;5154525;27;20391;-67
2024/03/10 05:13:08;;;;;;;16.38;12.23;;;;;;;;;;5155011;27;20029;-67
2024/03/10 05:15:34;;;;;;;14.63;11.43;;;;;;;;;;5151758;27;20460;-67
2024/03/10 05:18:02;;;;;;;15.88;10.73;;;;;;;;;;5154595;27;20088;-67
2024/03/10 05:20:31;;;;;;;14.00;10.27;;;;;;;;;;5151898;27;20109;-67
2024/03/10 05:22:58;;;;;;;15.18;10.98;;;;;;;;;;5150290;27;20033;-67
2024/03/10 05:25:24;;;;;;;11.77;10.15;;;;;;;;;;5149241;27;20114;-67
2024/03/10 05:27:51;;;;;;;12.98;9.68;;;;;;;;;;5152264;27;20524;-67
2024/03/10 05:30:17;;;;;;;10.77;8.10;;;;;;;;;;5150759;27;20087;-67
2024/03/10 05:32:44;;;;;;;12.75;9.50;;;;;;;;;;5147869;27;20395;-68
2024/03/10 05:35:20;;;;;;;10.93;8.30;;;;;;;;;;5147125;27;20046;-68
2024/03/10 05:37:46;;;;;;;10.27;8.80;;;;;;;;;;5134562;27;20025;-68
2024/03/10 05:40:24;;;;;;;8.93;6.93;;;;;;;;;;5135192;27;20085;-68
2024/03/10 05:42:51;;;;;;;9.82;7.30;;;;;;;;;;5151774;27;20027;-68
2024/03/10 05:45:18;;;;;;;8.10;6.57;;;;;;;;;;5153573;27;20015;-68
2024/03/10 05:47:44;;;;;;;10.32;6.78;;;;;;;;;;5154251;27;20018;-68
2024/03/10 05:50:11;;;;;;;7.30;5.80;;;;;;;;;;5154197;27;20076;-68
2024/03/10 05:52:58;;;;;;;8.13;5.25;;;;;;;;;;5153069;27;20034;-68
2024/03/10 05:55:24;;;;;;;8.15;5.10;;;;;;;;;;5152443;27;20048;-66
2024/03/10 05:57:50;;;;;;;7.68;4.65;;;;;;;;;;5153957;27;20026;-67
2024/03/10 06:00:18;;;;;;;4.78;4.22;;;;;;;;;;5153995;27;20437;-68
2024/03/10 06:02:44;;;;;;;7.63;4.85;;;;;;;;;;5135323;27;20106;-68
2024/03/10 06:05:12;;;;;;;5.65;4.38;;;;;;;;;;5153436;27;20037;-68
2024/03/10 06:07:38;;;;;;;8.35;3.97;;;;;;;;;;5154015;27;20079;-68
2024/03/10 06:10:06;;;;;;;5.82;4.10;;;;;;;;;;5154082;27;20022;-68
2024/03/10 06:12:32;;;;;;;3.70;2.58;;;;;;;;;;5149590;27;20027;-68
2024/03/10 06:14:59;;;;;;;4.80;3.28;;;;;;;;;;5143612;27;20023;-68
2024/03/10 06:17:31;;;;;;;6.18;3.35;;;;;;;;;;5152481;27;20088;-68
2024/03/10 06:25:32;;;;;;;3.35;2.90;;;;;;;;;;5100988;27;20027;-68
2024/03/10 06:27:58;;;;;;;6.38;3.15;;;;;;;;;;5140713;27;20387;-68
2024/03/10 06:30:24;;;;;;;4.85;2.70;;;;;;;;;;5132386;27;20412;-68
2024/03/10 06:32:51;;;;;;;4.70;2.50;;;;;;;;;;5153719;27;20023;-68
2024/03/10 06:35:17;;;;;;;3.65;2.47;;;;;;;;;;5153699;27;20034;-68
2024/03/10 06:37:49;;;;;;;4.13;2.38;;;;;;;;;;5135132;27;20019;-68
2024/03/10 06:40:16;;;;;;;3.92;2.85;;;;;;;;;;5153013;27;20023;-68
2024/03/10 06:42:44;;;;;;;6.30;3.10;;;;;;;;;;5150597;27;20026;-68
2024/03/10 06:45:10;;;;;;;3.92;2.53;;;;;;;;;;5139820;27;20019;-68
2024/03/10 06:47:38;;;;;;;4.68;2.13;;;;;;;;;;5157418;27;20081;-67
2024/03/10 06:50:05;;;;;;;3.03;2.63;;;;;;;;;;5154662;27;20042;-67
2024/03/10 07:01:44;;;;;;;6.93;2.40;;;;;;;;;;5153977;27;20047;-67
2024/03/10 07:04:19;;;;;;;3.25;2.95;;;;;;;;;;5156575;27;20041;-67
2024/03/10 07:06:49;;;;;;;9.88;2.60;;;;;;;;;;5153608;27;20058;-68
2024/03/10 07:09:15;;;;;;;6.68;2.30;;;;;;;;;;5157382;27;20113;-68
2024/03/10 07:11:42;;;;;;;7.55;2.90;;;;;;;;;;5157383;27;20030;-68
2024/03/10 07:14:08;;;;;;;4.20;1.90;;;;;;;;;;5157516;27;20019;-67
2024/03/10 07:16:35;;;;;;;3.58;2.20;;;;;;;;;;5156421;27;20042;-67
2024/03/10 07:19:05;;;;;;;5.32;1.70;;;;;;;;;;5157120;27;20480;-67
2024/03/10 07:21:31;;;;;;;3.95;1.98;;;;;;;;;;5139558;27;20113;-67
2024/03/10 07:23:57;;;;;;;2.75;1.38;;;;;;;;;;5137777;27;20061;-67
2024/03/10 07:26:23;;;;;;;3.95;1.63;;;;;;;;;;5157076;27;20074;-67
2024/03/10 07:28:49;;;;;;;4.38;1.90;;;;;;;;;;5152904;27;20384;-67
2024/03/10 07:31:15;;;;;;;3.70;1.88;;;;;;;;;;5155705;27;20079;-67
2024/03/10 07:33:41;;;;;;;3.88;1.48;;;;;;;;;;5143267;27;20019;-67
2024/03/10 07:42:18;;;;;;;9.57;1.20;;;;;;;;;;5148434;27;20052;-67
2024/03/10 07:44:44;;;;;;;5.43;1.60;;;;;;;;;;5152949;27;20129;-67
2024/03/10 07:47:10;;;;;;;5.72;1.80;;;;;;;;;;5156423;27;20219;-68
2024/03/10 07:49:37;;;;;;;1.77;0.90;;;;;;;;;;5156531;27;20109;-68
2024/03/10 07:52:04;;;;;;;4.60;1.63;;;;;;;;;;5143679;27;20051;-68
2024/03/10 07:54:30;;;;;;;3.63;1.27;;;;;;;;;;5154509;27;20022;-68
2024/03/10 07:56:56;;;;;;;6.22;2.15;;;;;;;;;;5137706;27;20524;-67
2024/03/10 07:59:22;;;;;;;2.40;1.10;;;;;;;;;;5154122;27;20023;-67
2024/03/10 08:01:49;;;;;;;4.38;1.60;;;;;;;;;;5145265;27;20022;-68
2024/03/10 08:04:15;;;;;;;3.95;1.58;;;;;;;;;;5146791;27;20483;-68
2024/03/10 08:06:41;;;;;;;2.88;1.23;;;;;;;;;;5155836;27;20489;-67
2024/03/10 08:09:07;;;;;;;3.55;1.10;;;;;;;;;;5149372;27;20105;-67
2024/03/10 08:11:33;;;;;;;4.57;0.90;;;;;;;;;;5156061;27;20029;-66
2024/03/10 08:13:59;;;;;;;4.07;1.15;;;;;;;;;;5150537;27;20033;-67
2024/03/10 08:16:25;;;;;;;1.70;1.02;;;;;;;;;;5155775;27;20018;-68
2024/03/10 08:18:51;;;;;;;4.93;1.63;;;;;;;;;;5147777;27;20384;-68
2024/03/10 08:21:18;;;;;;;3.22;1.70;;;;;;;;;;5152326;27;20027;-68
2024/03/10 08:23:44;;;;;;;2.13;1.52;;;;;;;;;;5155956;27;20015;-67
2024/03/10 08:26:10;;;;;;;2.03;1.20;;;;;;;;;;5155783;27;20038;-67
2024/03/10 08:28:37;;;;;;;3.47;1.55;;;;;;;;;;5154068;27;20105;-67
2024/03/10 08:31:04;;;;;;;3.47;1.88;;;;;;;;;;5148690;27;20022;-66
2024/03/10 08:33:30;;;;;;;2.05;1.48;;;;;;;;;;5155978;27;20394;-64
2024/03/10 08:38:59;;;;;;;2.65;1.38;;;;;;;;;;5149259;27;20072;-65
2024/03/10 08:41:25;;;;;;;2.28;1.45;;;;;;;;;;5142212;27;20038;-64
2024/03/10 08:43:53;;;;;;;1.95;1.63;;;;;;;;;;5149799;27;20073;-64
2024/03/10 08:55:36;;;;;;;2.22;1.70;;;;;;;;;;5144082;27;20086;-63
2024/03/10 08:58:03;;;;;;;2.95;1.85;;;;;;;;;;5135727;27;20134;-65
2024/03/10 09:00:30;;;;;;;4.90;2.17;;;;;;;;;;5155131;27;20062;-71
2024/03/10 09:02:56;;;;;;;5.45;2.22;;;;;;;;;;5154776;27;20019;-71
2024/03/10 09:05:23;;;;;;;4.65;2.20;;;;;;;;;;5155226;27;20443;-72
2024/03/10 09:07:50;;;;;;;3.00;1.73;;;;;;;;;;5153681;27;20075;-72
2024/03/10 09:10:17;;;;;;;4.28;1.55;;;;;;;;;;5148107;27;20106;-72
2024/03/10 09:12:43;;;;;;;4.00;1.92;;;;;;;;;;5154841;27;20026;-66
2024/03/10 09:15:12;;;;;;;4.25;2.05;;;;;;;;;;5154426;27;20022;-66
2024/03/10 09:17:42;;;;;;;3.35;2.25;;;;;;;;;;5154311;27;20033;-66
2024/03/10 09:20:11;;;;;;;4.40;2.55;;;;;;;;;;5154214;27;20399;-66
2024/03/10 09:22:39;;;;;;;6.95;2.10;;;;;;;;;;5150784;27;20026;-65
2024/03/10 09:28:09;;;;;;;5.18;2.33;;;;;;;;;;5146569;27;20449;-66
2024/03/10 09:30:35;;;;;;;8.05;2.88;;;;;;;;;;5125483;27;20030;-66
2024/03/10 09:33:01;;;;;;;5.32;2.47;;;;;;;;;;5143996;27;20380;-66
2024/03/10 09:35:34;;;;;;;5.80;2.65;;;;;;;;;;5149337;27;20059;-66
2024/03/10 09:38:06;;;;;;;5.55;2.40;;;;;;;;;;5154066;27;20024;-66
2024/03/10 09:40:32;;;;;;;3.55;2.17;;;;;;;;;;5154646;27;20157;-66
2024/03/10 09:43:04;;;;;;;2.55;2.22;;;;;;;;;;5131227;27;20463;-66
2024/03/10 09:45:31;;;;;;;3.45;2.38;;;;;;;;;;5154668;27;20434;-66
2024/03/10 09:47:58;;;;;;;5.25;2.35;;;;;;;;;;5134055;27;20050;-67
2024/03/10 09:50:24;;;;;;;6.95;2.35;;;;;;;;;;5148022;27;20019;-66
2024/03/10 09:52:54;;;;;;;3.50;2.05;;;;;;;;;;5135338;27;20031;-67
2024/03/10 09:55:20;;;;;;;5.50;2.83;;;;;;;;;;5128371;27;20100;-66
2024/03/10 10:00:52;;;;;;;3.70;2.90;;;;;;;;;;5127089;27;20034;-67
2024/03/10 10:03:19;;;;;;;6.75;3.25;;;;;;;;;;5128892;27;20068;-70
2024/03/10 10:05:47;;;;;;;6.85;2.75;;;;;;;;;;5126866;27;20035;-71
2024/03/10 10:08:14;;;;;;;4.30;2.95;;;;;;;;;;5128849;27;20019;-71
2024/03/10 10:10:43;;;;;;;4.90;2.42;;;;;;;;;;5127073;27;20158;-70
2024/03/10 10:13:21;;;;;;;6.35;2.55;;;;;;;;;;5131924;27;20489;-70
2024/03/10 10:15:47;;;;;;;3.55;2.25;;;;;;;;;;5122235;27;20421;-69
2024/03/10 10:18:15;;;;;;;5.18;2.55;;;;;;;;;;5125572;27;20027;-70
2024/03/10 10:20:54;;;;;;;3.45;2.35;;;;;;;;;;5125845;27;20062;-70
2024/03/10 10:23:24;;;;;;;5.28;2.30;;;;;;;;;;5124590;28;20054;-70
2024/03/10 10:25:53;;;;;;;6.72;2.67;;;;;;;;;;5123974;28;20029;-70
2024/03/10 10:28:19;;;;;;;4.03;2.03;;;;;;;;;;5131707;28;20026;-69
2024/03/10 10:30:45;;;;;;;7.43;2.28;;;;;;;;;;5132673;28;20110;-69
2024/03/10 10:33:12;;;;;;;9.00;2.58;;;;;;;;;;5121939;28;20027;-70
2024/03/10 10:35:42;;;;;;;5.95;2.17;;;16.80;99.90;;;;;;5119768;28;20102;-69
2024/03/10 10:38:12;;;;;;;3.15;2.03;;;13.50;99.90;;;;;;5133139;28;20022;-70
2024/03/10 10:40:40;;;;;;;7.15;2.58;;;13.20;99.90;;;;;;5128026;27;20039;-69
2024/03/10 10:43:06;;;;;;;3.78;2.38;;;13.10;99.90;;;;;;5133086;27;20045;-69
2024/03/10 10:45:35;;;;;;;4.18;2.55;;;13.10;99.90;;;;;;5128284;27;20036;-69
2024/03/10 10:48:01;;;;;;;5.72;2.60;;;13.10;99.90;;;;;;5130752;27;20092;-69
2024/03/10 10:50:34;;;;;;;7.05;3.30;;;13.30;99.90;;;;;;5128765;27;20035;-69
2024/03/10 10:53:01;;;;;;;3.35;2.63;;;13.20;99.90;;;;;;5132436;28;20011;-68
2024/03/10 10:55:30;;;;;;;5.50;2.55;;;13.30;99.90;;;;;;5149288;27;20051;-68
2024/03/10 10:58:03;;;;;;;5.18;1.80;;;13.10;99.90;;;;;;5134994;27;20026;-67
2024/03/10 11:00:31;;;;;;;5.07;1.73;;;13.20;99.90;;;;;;5134440;27;20034;-67
2024/03/10 11:03:07;;;;;;;5.28;2.00;;;13.20;99.90;;;;;;5151447;27;20014;-64
2024/03/10 11:05:33;;;;;;;4.03;2.10;;;13.20;99.90;;;;;;5153347;27;20023;-63
2024/03/10 11:08:01;;;;;;;6.78;1.83;;;13.10;99.90;;;;;;5132950;27;20360;-67
2024/03/10 11:10:59;;;;;;;4.90;2.47;;;12.70;99.90;;;;;;5134160;27;20019;-68
2024/03/10 11:13:26;;;;;;;3.25;1.90;;;13.00;99.90;;;;;;5103942;27;20031;-67
2024/03/10 11:16:20;;;;;;;4.57;1.50;;;12.90;99.90;;;;;;5146358;27;20019;-68
2024/03/10 11:18:46;;;;;;;2.90;2.20;;;13.00;99.90;;;;;;5141041;27;20123;-68
2024/03/10 11:21:20;;;;;;;3.65;2.60;;;12.80;99.90;;;;;;5134662;27;20019;-68
2024/03/10 11:23:48;;;;;;;3.97;2.17;;;13.20;99.90;;;;;;5126031;27;20068;-69
2024/03/10 11:26:24;;;;;;;2.60;1.77;;;13.00;99.90;;;;;;5145107;27;20781;-69
2024/03/10 11:28:59;;;;;;;3.50;1.90;;;13.20;99.90;;;;;;5153328;27;20015;-68
2024/03/10 11:31:27;;;;;;;6.10;1.85;;;13.10;99.90;;;;;;5153190;27;20026;-67
2024/03/10 11:33:56;;;;;;;40.13;3.72;;;13.10;99.90;;;;;;5134918;27;20046;-66
2024/03/10 11:36:23;;;;;;;10.35;2.53;;;13.00;99.90;;;;;;5156822;27;20022;-66
2024/03/10 11:38:51;;;;;;;13.48;2.30;;;13.00;99.90;;;;;;5156899;27;20502;-64
2024/03/10 11:41:19;;;;;;;10.35;3.08;;;12.90;99.90;;;;;;5133420;27;20023;-64
2024/03/10 11:43:48;;;;;;;2.38;1.40;;;13.00;99.90;;;;;;5148695;27;20019;-64
2024/03/10 11:46:26;;;;;;;5.10;2.30;;;12.50;99.90;;;;;;5156792;27;20089;-64
2024/03/10 11:48:53;;;;;;;11.18;2.83;;;12.40;99.90;;;;;;5156319;27;20037;-64
2024/03/10 11:51:19;;;;;;;3.65;1.50;;;12.40;99.90;;;;;;5143362;27;20099;-64
2024/03/10 11:54:36;;;;;;;4.35;2.25;;;12.40;99.90;;;;;;5152545;27;20604;-63
2024/03/10 11:57:02;;;;;;;7.38;2.58;;;12.40;99.90;;;;;;5112153;28;20114;-64
2024/03/10 11:59:29;;;;;;;2.28;1.40;;;12.00;99.90;;;;;;5115348;28;20054;-63
2024/03/10 12:01:57;;;;;;;3.55;0.93;;;11.80;99.90;;;;;;5114864;28;20049;-63
2024/03/10 12:04:23;;;;;;;0.00;0.00;;;;;;;;;;5115210;28;20190;-63
2024/03/10 12:06:49;;;;;;;0.85;0.85;;;;;;;;;;5114967;28;20039;-63
2024/03/10 12:09:20;;;;;;;0.00;0.00;;;;;;;;;;5110047;28;20549;-63
2024/03/10 12:11:46;;;;;;;0.00;0.00;;;;;;;;;;5114941;28;20027;-63
2024/03/10 12:14:36;;;;;;;0.10;0.10;;;;;;;;;;5114999;28;20023;-62
2024/03/10 12:17:02;;;;;;;0.00;0.00;;;;;;;;;;5114521;28;20027;-63
2024/03/10 12:19:39;;;;;;;0.00;0.00;;;;;;;;;;5114747;28;20503;-63
2024/03/10 12:22:06;;;;;;;0.00;0.00;;;;;;;;;;5109905;28;20042;-63
2024/03/10 12:24:33;;;;;;;0.00;0.00;;;;;;;;;;5113476;28;20028;-64
2024/03/10 12:27:05;;;;;;;0.00;0.00;;;;;;;;;;5114989;28;20441;-62
2024/03/10 12:29:31;;;;;;;0.00;0.00;;;;;;;;;;5114582;28;20156;-64
2024/03/10 12:31:57;;;;;;;0.00;0.00;;;;;;;;;;5113589;28;20020;-63
2024/03/10 12:34:23;;;;;;;0.00;0.00;;;;;;;;;;5114274;28;20032;-63
2024/03/10 12:36:51;;;;;;;0.00;0.00;;;;;;;;;;5114198;28;20569;-63
2024/03/10 12:39:18;;;;;;;0.20;0.20;;;;;;;;;;5114493;28;20024;-64
2024/03/10 12:41:44;;;;;;;0.00;0.00;;;;;;;;;;5114397;28;20542;-63
2024/03/10 12:44:10;;;;;;;0.00;0.00;;;;;;;;;;5113357;28;20027;-63
2024/03/10 12:46:36;;;;;;;0.00;0.00;;;;;;;;;;5113909;28;20072;-62
2024/03/10 12:49:02;;;;;;;0.00;0.00;;;;;;;;;;5112765;28;20090;-62
2024/03/10 12:51:28;;;;;;;1.33;1.25;;;;;;;;;;5114349;28;20034;-62
2024/03/10 12:53:54;;;;;;;0.00;0.00;;;;;;;;;;5114040;28;20056;-62
2024/03/10 12:56:23;;;;;;;0.00;0.00;;;;;;;;;;5128290;27;20050;-63
2024/03/10 12:58:51;;;;;;;0.28;0.28;;;;;;;;;;5129399;27;20092;-63
2024/03/10 13:01:17;;;;;;;0.00;0.00;;;;;;;;;;5117517;27;20031;-63
2024/03/10 13:03:44;;;;;;;0.00;0.00;;;;;;;;;;5127076;27;20492;-63
2024/03/10 13:06:10;;;;;;;0.00;0.00;;;;;;;;;;5134406;27;20122;-63
2024/03/10 13:08:36;;;;;;;0.00;0.00;;;;;;;;;;5134475;27;20445;-63
2024/03/10 13:11:05;;;;;;;0.00;0.00;;;;;;;;;;5131299;27;20079;-63
2024/03/10 13:13:31;;;;;;;0.00;0.00;;;;;;;;;;5132762;27;20126;-64
2024/03/10 13:15:57;;;;;;;0.00;0.00;;;;;;;;;;5134093;27;20131;-63
2024/03/10 13:18:23;;;;;;;0.00;0.00;;;;;;;;;;5129312;27;20023;-63
2024/03/10 13:20:49;;;;;;;0.00;0.00;;;;;;;;;;5127904;27;20042;-64
2024/03/10 13:23:22;;;;;;;0.00;0.00;;;;;;;;;;5133931;27;20022;-64
2024/03/10 13:25:48;;;;;;;0.00;0.00;;;;;;;;;;5134344;27;20023;-64
2024/03/10 13:28:14;;;;;;;0.00;0.00;;;;;;;;;;5132209;27;20384;-64
2024/03/10 13:30:40;;;;;;;0.00;0.00;;;;;;;;;;5134301;27;20452;-64
2024/03/10 13:33:06;;;;;;;0.00;0.00;;;;;;;;;;5128582;27;20110;-65
2024/03/10 13:35:33;;;;;;;0.00;0.00;;;;;;;;;;5134117;27;20012;-65
2024/03/10 13:38:02;;;;;;;0.00;0.00;;;;;;;;;;5127658;27;20020;-64
2024/03/10 13:40:28;;;;;;;0.00;0.00;;;;;;;;;;5129831;27;20540;-65
2024/03/10 13:42:55;;;;;;;0.00;0.00;;;;;;;;;;5126707;27;20105;-65
2024/03/10 13:45:21;;;;;;;0.00;0.00;;;;;;;;;;5133604;27;20019;-65
2024/03/10 13:47:47;;;;;;;0.00;0.00;;;;;;;;;;5132792;27;20034;-65
2024/03/10 13:50:13;;;;;;;0.00;0.00;;;;;;;;;;5132673;27;20023;-65
2024/03/10 13:52:40;;;;;;;0.00;0.00;;;;;;;;;;5123539;27;20008;-65
2024/03/10 13:55:07;;;;;;;0.00;0.00;;;;;;;;;;5138703;27;20114;-65
2024/03/10 13:57:33;;;;;;;0.00;0.00;;;;;;;;;;5153524;27;20019;-65
2024/03/10 14:00:00;;;;;;;0.00;0.00;;;;;;;;;;5149093;27;20088;-65
2024/03/10 14:02:26;;;;;;;0.00;0.00;;;;;;;;;;5150163;27;20484;-66
2024/03/10 14:04:52;;;;;;;0.00;0.00;;;;;;;;;;5154170;27;20030;-66
2024/03/10 14:07:18;;;;;;;0.00;0.00;;;;;;;;;;5140894;27;20050;-66
2024/03/10 14:09:45;;;;;;;0.00;0.00;;;;;;;;;;5150454;27;20028;-66
2024/03/10 14:12:12;;;;;;;0.00;0.00;;;;;;;;;;5146345;27;20472;-66
2024/03/10 14:14:39;;;;;;;0.00;0.00;;;;;;;;;;5154046;27;20074;-66
2024/03/10 14:17:06;;;;;;;0.00;0.00;;;;;;;;;;5154120;27;20022;-67
2024/03/10 14:19:32;;;;;;;0.00;0.00;;;;;;;;;;5134507;27;20027;-67
2024/03/10 14:21:58;;;;;;;0.00;0.00;;;;;;;;;;5153987;27;20491;-67
2024/03/10 14:24:25;;;;;;;0.00;0.00;;;;;;;;;;5153441;27;20014;-67
2024/03/10 14:26:53;;;;;;;0.00;0.00;;;;;;;;;;5139202;27;20110;-67
2024/03/10 14:29:19;;;;;;;0.00;0.00;;;;;;;;;;5149575;27;20022;-67
2024/03/10 14:31:45;;;;;;;0.00;0.00;;;;;;;;;;5152406;27;20022;-67
2024/03/10 14:34:17;;;;;;;0.00;0.00;;;;;;;;;;5153180;27;20023;-67
2024/03/10 14:36:43;;;;;;;0.00;0.00;;;;;;;;;;5150450;27;20019;-66
2024/03/10 14:39:12;;;;;;;0.00;0.00;;;;;;;;;;5149683;27;20019;-67
2024/03/10 14:41:39;;;;;;;0.03;0.03;;;;;;;;;;5149215;27;20030;-67
2024/03/10 14:44:05;;;;;;;0.00;0.00;;;;;;;;;;5148921;27;20022;-67
2024/03/10 14:46:32;;;;;;;0.00;0.00;;;;;;;;;;5151172;27;20042;-68
2024/03/10 14:48:58;;;;;;;0.00;0.00;;;;;;;;;;5133360;27;20337;-68
2024/03/10 14:51:26;;;;;;;0.00;0.00;;;;;;;;;;5149022;27;20026;-68
2024/03/10 14:53:52;;;;;;;0.00;0.00;;;;;;;;;;5153122;27;20023;-68
2024/03/10 14:56:18;;;;;;;0.00;0.00;;;;;;;;;;5145033;27;20075;-68
2024/03/10 14:58:45;;;;;;;0.00;0.00;;;;;;;;;;5147743;27;20015;-69
2024/03/10 15:01:11;;;;;;;0.00;0.00;;;;;;;;;;5140246;27;20027;-69
2024/03/10 15:03:37;;;;;;;0.00;0.00;;;;;;;;;;5133007;27;20034;-69
2024/03/10 15:06:15;;;;;;;0.15;0.15;;;;;;;;;;5149615;27;20440;-69
2024/03/10 15:08:41;;;;;;;0.00;0.00;;;;;;;;;;5157229;27;20027;-69
2024/03/10 15:11:08;;;;;;;0.00;0.00;;;;;;;;;;5141569;27;20495;-69
2024/03/10 15:13:34;;;;;;;0.00;0.00;;;;;;;;;;5155686;27;20018;-69
2024/03/10 15:16:01;;;;;;;1.45;0.88;;;;;;;;;;5157490;27;20029;-69
2024/03/10 15:18:27;;;;;;;0.00;0.00;;;;;;;;;;5157323;27;20487;-69
2024/03/10 15:20:54;;;;;;;0.00;0.00;;;;;;;;;;5136794;27;20447;-69
2024/03/10 15:23:21;;;;;;;0.00;0.00;;;;;;;;;;5157263;27;20151;-69
2024/03/10 15:25:48;;;;;;;0.20;0.20;;;;;;;;;;5138219;27;20043;-70
2024/03/10 15:28:19;;;;;;;0.00;0.00;;;;;;;;;;5154630;27;20537;-70
2024/03/10 15:30:46;;;;;;;0.00;0.00;;;;;;;;;;5140736;27;20457;-70